sensor_id;sensor_type;location;lat;lon;timestamp;P1;durP1;ratioP1;P2;durP2;ratioP2
73315;SDS011;61545;53.726;-0.444;2023-04-25T00:02:57;7.4;;;1.5;;
73315;SDS011;61545;53.726;-0.444;2023-04-25T00:07:53;7.4;;;1.5;;
73315;SDS011;61545;53.726;-0.444;2023-04-25T00:12:56;6.4;;;1.6;;
73315;SDS011;61545;53.726;-0.444;2023-04-25T00:23:10;8.0;;;1.4;;
73315;SDS011;61545;53.726;-0.444;2023-04-25T00:28:08;5.9;;;1.2;;
73315;SDS011;61545;53.726;-0.444;2023-04-25T00:32:56;7.4;;;1.5;;
73315;SDS011;61545;53.726;-0.444;2023-04-25T00:38:14;7.4;;;1.5;;
73315;SDS011;61545;53.726;-0.444;2023-04-25T00:43:06;9.4;;;1.3;;
73315;SDS011;61545;53.726;-0.444;2023-04-25T00:47:56;9.2;;;1.7;;
73315;SDS011;61545;53.726;-0.444;2023-04-25T00:53:07;5.6;;;1.1;;
73315;SDS011;61545;53.726;-0.444;2023-04-25T00:58:06;9.0;;;1.3;;
73315;SDS011;61545;53.726;-0.444;2023-04-25T01:03:06;4.6;;;1.3;;
73315;SDS011;61545;53.726;-0.444;2023-04-25T01:07:56;4.6;;;1.3;;
73315;SDS011;61545;53.726;-0.444;2023-04-25T01:13:08;7.8;;;1.3;;
73315;SDS011;61545;53.726;-0.444;2023-04-25T01:18:05;7.6;;;1.5;;
73315;SDS011;61545;53.726;-0.444;2023-04-25T01:28:05;7.1;;;1.7;;
73315;SDS011;61545;53.726;-0.444;2023-04-25T01:33:05;10.5;;;2.2;;
73315;SDS011;61545;53.726;-0.444;2023-04-25T01:37:55;10.5;;;2.2;;
73315;SDS011;61545;53.726;-0.444;2023-04-25T01:42:54;9.8;;;1.3;;
73315;SDS011;61545;53.726;-0.444;2023-04-25T01:47:53;10.2;;;1.8;;
73315;SDS011;61545;53.726;-0.444;2023-04-25T01:57:57;10.7;;;1.9;;
73315;SDS011;61545;53.726;-0.444;2023-04-25T02:03:06;6.6;;;2;;
73315;SDS011;61545;53.726;-0.444;2023-04-25T02:07:56;6.6;;;2;;
73315;SDS011;61545;53.726;-0.444;2023-04-25T02:17:57;7.9;;;1.7;;
73315;SDS011;61545;53.726;-0.444;2023-04-25T02:23:04;7.9;;;1.4;;
73315;SDS011;61545;53.726;-0.444;2023-04-25T02:27:56;9.4;;;1.6;;
73315;SDS011;61545;53.726;-0.444;2023-04-25T02:43:07;3.8;;;1.3;;
73315;SDS011;61545;53.726;-0.444;2023-04-25T02:48:07;6.3;;;2;;
73315;SDS011;61545;53.726;-0.444;2023-04-25T02:52:56;4.9;;;1.9;;
73315;SDS011;61545;53.726;-0.444;2023-04-25T03:03:06;7.9;;;2;;
73315;SDS011;61545;53.726;-0.444;2023-04-25T03:08:05;7.9;;;2;;
73315;SDS011;61545;53.726;-0.444;2023-04-25T03:13:04;6.1;;;1.8;;
73315;SDS011;61545;53.726;-0.444;2023-04-25T03:17:56;4.8;;;1.5;;
73315;SDS011;61545;53.726;-0.444;2023-04-25T03:22:53;5.7;;;1.4;;
73315;SDS011;61545;53.726;-0.444;2023-04-25T03:27:53;6.4;;;1.7;;
73315;SDS011;61545;53.726;-0.444;2023-04-25T03:32:56;5.5;;;1.6;;
73315;SDS011;61545;53.726;-0.444;2023-04-25T03:37:56;5.5;;;1.6;;
73315;SDS011;61545;53.726;-0.444;2023-04-25T03:42:53;6.0;;;1.6;;
73315;SDS011;61545;53.726;-0.444;2023-04-25T03:47:55;5.8;;;1.5;;
73315;SDS011;61545;53.726;-0.444;2023-04-25T03:52:57;7.6;;;1.7;;
73315;SDS011;61545;53.726;-0.444;2023-04-25T03:58:07;6.1;;;1.9;;
73315;SDS011;61545;53.726;-0.444;2023-04-25T04:03:07;6.1;;;1.3;;
73315;SDS011;61545;53.726;-0.444;2023-04-25T04:07:56;6.1;;;1.3;;
73315;SDS011;61545;53.726;-0.444;2023-04-25T04:12:56;10.0;;;2.1;;
73315;SDS011;61545;53.726;-0.444;2023-04-25T04:18:07;6.9;;;1.4;;
73315;SDS011;61545;53.726;-0.444;2023-04-25T04:23:07;6.5;;;1.6;;
73315;SDS011;61545;53.726;-0.444;2023-04-25T04:27:56;6.9;;;1.7;;
73315;SDS011;61545;53.726;-0.444;2023-04-25T04:32:57;10.0;;;1.6;;
73315;SDS011;61545;53.726;-0.444;2023-04-25T04:38:06;10.0;;;1.6;;
73315;SDS011;61545;53.726;-0.444;2023-04-25T04:43:08;10.9;;;1.8;;
73315;SDS011;61545;53.726;-0.444;2023-04-25T04:48:08;7.5;;;1.8;;
73315;SDS011;61545;53.726;-0.444;2023-04-25T04:52:56;3.1;;;1.3;;
73315;SDS011;61545;53.726;-0.444;2023-04-25T04:57:53;9.2;;;2.6;;
73315;SDS011;61545;53.726;-0.444;2023-04-25T05:02:58;7.6;;;1.6;;
73315;SDS011;61545;53.726;-0.444;2023-04-25T05:07:56;7.6;;;1.6;;
73315;SDS011;61545;53.726;-0.444;2023-04-25T05:13:06;8.2;;;2.7;;
73315;SDS011;61545;53.726;-0.444;2023-04-25T05:18:06;7.7;;;1.7;;
73315;SDS011;61545;53.726;-0.444;2023-04-25T05:22:53;7.2;;;1.2;;
73315;SDS011;61545;53.726;-0.444;2023-04-25T05:27:56;5.0;;;2.3;;
73315;SDS011;61545;53.726;-0.444;2023-04-25T05:32:56;7.6;;;1.3;;
73315;SDS011;61545;53.726;-0.444;2023-04-25T05:38:06;7.6;;;1.3;;
73315;SDS011;61545;53.726;-0.444;2023-04-25T05:42:56;4.5;;;1.4;;
73315;SDS011;61545;53.726;-0.444;2023-04-25T05:47:55;4.2;;;1.2;;
73315;SDS011;61545;53.726;-0.444;2023-04-25T05:52:56;4.5;;;1.3;;
73315;SDS011;61545;53.726;-0.444;2023-04-25T05:57:57;5.4;;;1.3;;
73315;SDS011;61545;53.726;-0.444;2023-04-25T06:03:07;2.6;;;1.1;;
73315;SDS011;61545;53.726;-0.444;2023-04-25T06:08:07;2.6;;;1.1;;
73315;SDS011;61545;53.726;-0.444;2023-04-25T06:13:06;4.5;;;1.2;;
73315;SDS011;61545;53.726;-0.444;2023-04-25T06:17:56;4.0;;;1.4;;
73315;SDS011;61545;53.726;-0.444;2023-04-25T06:23:03;4.4;;;1.3;;
73315;SDS011;61545;53.726;-0.444;2023-04-25T06:27:53;4.0;;;1.3;;
73315;SDS011;61545;53.726;-0.444;2023-04-25T06:32:56;10.7;;;1.9;;
73315;SDS011;61545;53.726;-0.444;2023-04-25T06:38:19;10.7;;;1.9;;
73315;SDS011;61545;53.726;-0.444;2023-04-25T06:43:17;4.5;;;1.5;;
73315;SDS011;61545;53.726;-0.444;2023-04-25T06:47:56;7.0;;;1.7;;
73315;SDS011;61545;53.726;-0.444;2023-04-25T06:52:56;3.6;;;1.2;;
73315;SDS011;61545;53.726;-0.444;2023-04-25T06:57:55;4.8;;;1.4;;
73315;SDS011;61545;53.726;-0.444;2023-04-25T07:02:56;7.6;;;1.6;;
73315;SDS011;61545;53.726;-0.444;2023-04-25T07:07:55;7.6;;;1.6;;
73315;SDS011;61545;53.726;-0.444;2023-04-25T07:13:14;6.1;;;1.4;;
73315;SDS011;61545;53.726;-0.444;2023-04-25T07:17:58;4.4;;;1.3;;
73315;SDS011;61545;53.726;-0.444;2023-04-25T07:22:56;9.9;;;1.7;;
73315;SDS011;61545;53.726;-0.444;2023-04-25T07:27:58;4.7;;;1.5;;
73315;SDS011;61545;53.726;-0.444;2023-04-25T07:33:06;6.3;;;1.4;;
73315;SDS011;61545;53.726;-0.444;2023-04-25T07:37:56;6.3;;;1.4;;
73315;SDS011;61545;53.726;-0.444;2023-04-25T07:42:57;7.7;;;1.6;;
73315;SDS011;61545;53.726;-0.444;2023-04-25T07:47:53;5.0;;;1.5;;
73315;SDS011;61545;53.726;-0.444;2023-04-25T07:52:56;3.5;;;1.3;;
73315;SDS011;61545;53.726;-0.444;2023-04-25T07:57:56;5.9;;;1.8;;
73315;SDS011;61545;53.726;-0.444;2023-04-25T08:03:04;5.1;;;1.2;;
73315;SDS011;61545;53.726;-0.444;2023-04-25T08:07:53;5.1;;;1.2;;
73315;SDS011;61545;53.726;-0.444;2023-04-25T08:12:56;4.4;;;1.5;;
73315;SDS011;61545;53.726;-0.444;2023-04-25T08:17:56;7.5;;;1.5;;
73315;SDS011;61545;53.726;-0.444;2023-04-25T08:23:15;6.4;;;1.8;;
73315;SDS011;61545;53.726;-0.444;2023-04-25T08:28:09;3.9;;;1.2;;
73315;SDS011;61545;53.726;-0.444;2023-04-25T08:32:58;6.2;;;1.5;;
73315;SDS011;61545;53.726;-0.444;2023-04-25T08:37:56;6.2;;;1.5;;
73315;SDS011;61545;53.726;-0.444;2023-04-25T08:42:53;7.4;;;1.5;;
73315;SDS011;61545;53.726;-0.444;2023-04-25T08:47:56;5.3;;;1.4;;
73315;SDS011;61545;53.726;-0.444;2023-04-25T08:52:56;6.6;;;1.7;;
73315;SDS011;61545;53.726;-0.444;2023-04-25T08:57:53;5.2;;;1.4;;
73315;SDS011;61545;53.726;-0.444;2023-04-25T09:02:53;8.4;;;1.9;;
73315;SDS011;61545;53.726;-0.444;2023-04-25T09:07:56;8.4;;;1.9;;
73315;SDS011;61545;53.726;-0.444;2023-04-25T09:13:12;4.8;;;1.3;;
73315;SDS011;61545;53.726;-0.444;2023-04-25T09:17:57;9.5;;;1.4;;
73315;SDS011;61545;53.726;-0.444;2023-04-25T09:23:05;5.7;;;1.5;;
73315;SDS011;61545;53.726;-0.444;2023-04-25T09:27:53;6.5;;;1.5;;
73315;SDS011;61545;53.726;-0.444;2023-04-25T09:32:56;5.1;;;1.4;;
73315;SDS011;61545;53.726;-0.444;2023-04-25T09:37:53;5.1;;;1.4;;
73315;SDS011;61545;53.726;-0.444;2023-04-25T09:42:53;5.0;;;1.4;;
73315;SDS011;61545;53.726;-0.444;2023-04-25T09:47:55;4.7;;;1.5;;
73315;SDS011;61545;53.726;-0.444;2023-04-25T09:53:05;5.3;;;1.3;;
73315;SDS011;61545;53.726;-0.444;2023-04-25T09:57:56;4.1;;;1.4;;
73315;SDS011;61545;53.726;-0.444;2023-04-25T10:02:53;4.3;;;1.4;;
73315;SDS011;61545;53.726;-0.444;2023-04-25T10:07:53;4.3;;;1.4;;
73315;SDS011;61545;53.726;-0.444;2023-04-25T10:12:53;3.2;;;1.1;;
73315;SDS011;61545;53.726;-0.444;2023-04-25T10:17:53;6.6;;;1.7;;
73315;SDS011;61545;53.726;-0.444;2023-04-25T10:22:54;6.4;;;1.6;;
73315;SDS011;61545;53.726;-0.444;2023-04-25T10:27:53;3.7;;;1.2;;
73315;SDS011;61545;53.726;-0.444;2023-04-25T10:32:58;5.8;;;1.7;;
73315;SDS011;61545;53.726;-0.444;2023-04-25T10:38:05;5.8;;;1.7;;
73315;SDS011;61545;53.726;-0.444;2023-04-25T10:42:55;5.9;;;1.4;;
73315;SDS011;61545;53.726;-0.444;2023-04-25T10:47:53;2.0;;;1;;
73315;SDS011;61545;53.726;-0.444;2023-04-25T10:53:18;3.3;;;1.4;;
73315;SDS011;61545;53.726;-0.444;2023-04-25T10:57:57;3.3;;;1.2;;
73315;SDS011;61545;53.726;-0.444;2023-04-25T11:02:59;8.0;;;1.8;;
73315;SDS011;61545;53.726;-0.444;2023-04-25T11:07:56;8.0;;;1.8;;
73315;SDS011;61545;53.726;-0.444;2023-04-25T11:12:57;2.3;;;1.2;;
73315;SDS011;61545;53.726;-0.444;2023-04-25T11:17:54;3.3;;;1.3;;
73315;SDS011;61545;53.726;-0.444;2023-04-25T11:22:53;3.9;;;1.2;;
73315;SDS011;61545;53.726;-0.444;2023-04-25T11:27:57;6.4;;;1.8;;
73315;SDS011;61545;53.726;-0.444;2023-04-25T11:32:56;3.2;;;1.2;;
73315;SDS011;61545;53.726;-0.444;2023-04-25T11:37:55;3.2;;;1.2;;
73315;SDS011;61545;53.726;-0.444;2023-04-25T11:42:59;3.5;;;1.3;;
73315;SDS011;61545;53.726;-0.444;2023-04-25T11:47:55;6.0;;;1.4;;
73315;SDS011;61545;53.726;-0.444;2023-04-25T11:52:55;3.0;;;1.2;;
73315;SDS011;61545;53.726;-0.444;2023-04-25T11:57:59;4.2;;;1.8;;
73315;SDS011;61545;53.726;-0.444;2023-04-25T12:03:04;5.4;;;1.6;;
73315;SDS011;61545;53.726;-0.444;2023-04-25T12:08:17;5.4;;;1.6;;
73315;SDS011;61545;53.726;-0.444;2023-04-25T12:13:16;2.0;;;1;;
73315;SDS011;61545;53.726;-0.444;2023-04-25T12:17:57;3.4;;;1.3;;
73315;SDS011;61545;53.726;-0.444;2023-04-25T12:22:58;3.7;;;1.2;;
73315;SDS011;61545;53.726;-0.444;2023-04-25T12:27:53;4.1;;;1.3;;
73315;SDS011;61545;53.726;-0.444;2023-04-25T12:32:56;3.8;;;1.2;;
73315;SDS011;61545;53.726;-0.444;2023-04-25T12:37:53;3.8;;;1.2;;
73315;SDS011;61545;53.726;-0.444;2023-04-25T12:42:56;3.7;;;1.4;;
73315;SDS011;61545;53.726;-0.444;2023-04-25T12:48:07;4.0;;;1.4;;
73315;SDS011;61545;53.726;-0.444;2023-04-25T12:52:57;8.0;;;2.1;;
73315;SDS011;61545;53.726;-0.444;2023-04-25T12:58:05;4.3;;;1.5;;
73315;SDS011;61545;53.726;-0.444;2023-04-25T13:03:11;4.0;;;1.6;;
73315;SDS011;61545;53.726;-0.444;2023-04-25T13:07:57;4.0;;;1.6;;
73315;SDS011;61545;53.726;-0.444;2023-04-25T13:12:56;6.6;;;1.5;;
73315;SDS011;61545;53.726;-0.444;2023-04-25T13:17:56;3.4;;;1.2;;
73315;SDS011;61545;53.726;-0.444;2023-04-25T13:22:53;8.4;;;1.7;;
73315;SDS011;61545;53.726;-0.444;2023-04-25T13:27:56;4.9;;;1.6;;
73315;SDS011;61545;53.726;-0.444;2023-04-25T13:33:06;2.6;;;1.4;;
73315;SDS011;61545;53.726;-0.444;2023-04-25T13:38:07;2.6;;;1.4;;
73315;SDS011;61545;53.726;-0.444;2023-04-25T13:43:04;7.1;;;1.7;;
73315;SDS011;61545;53.726;-0.444;2023-04-25T13:47:53;3.2;;;1.3;;
73315;SDS011;61545;53.726;-0.444;2023-04-25T13:52:56;2.0;;;1.4;;
73315;SDS011;61545;53.726;-0.444;2023-04-25T13:57:57;2.8;;;1.4;;
73315;SDS011;61545;53.726;-0.444;2023-04-25T14:03:09;3.5;;;1.3;;
73315;SDS011;61545;53.726;-0.444;2023-04-25T14:07:57;3.5;;;1.3;;
73315;SDS011;61545;53.726;-0.444;2023-04-25T14:13:08;3.5;;;1.6;;
73315;SDS011;61545;53.726;-0.444;2023-04-25T14:17:57;2.9;;;1.3;;
73315;SDS011;61545;53.726;-0.444;2023-04-25T14:23:09;4.7;;;1.3;;
73315;SDS011;61545;53.726;-0.444;2023-04-25T14:28:14;3.8;;;1.6;;
73315;SDS011;61545;53.726;-0.444;2023-04-25T14:33:15;4.4;;;1.4;;
73315;SDS011;61545;53.726;-0.444;2023-04-25T14:38:05;4.4;;;1.4;;
73315;SDS011;61545;53.726;-0.444;2023-04-25T14:47:57;4.7;;;1.5;;
73315;SDS011;61545;53.726;-0.444;2023-04-25T14:52:57;5.0;;;1.7;;
73315;SDS011;61545;53.726;-0.444;2023-04-25T14:58:05;4.5;;;1.9;;
73315;SDS011;61545;53.726;-0.444;2023-04-25T15:03:05;8.5;;;2;;
73315;SDS011;61545;53.726;-0.444;2023-04-25T15:08:14;8.5;;;2;;
73315;SDS011;61545;53.726;-0.444;2023-04-25T15:12:57;3.3;;;1.7;;
73315;SDS011;61545;53.726;-0.444;2023-04-25T15:17:56;8.2;;;1.7;;
73315;SDS011;61545;53.726;-0.444;2023-04-25T15:22:56;10.1;;;2.1;;
73315;SDS011;61545;53.726;-0.444;2023-04-25T15:27:56;7.7;;;1.9;;
73315;SDS011;61545;53.726;-0.444;2023-04-25T15:32:56;4.4;;;1.5;;
73315;SDS011;61545;53.726;-0.444;2023-04-25T15:37:55;4.4;;;1.5;;
73315;SDS011;61545;53.726;-0.444;2023-04-25T15:43:07;5.2;;;1.4;;
73315;SDS011;61545;53.726;-0.444;2023-04-25T15:48:06;6.0;;;1.4;;
73315;SDS011;61545;53.726;-0.444;2023-04-25T15:52:57;3.9;;;1.4;;
73315;SDS011;61545;53.726;-0.444;2023-04-25T15:57:55;5.2;;;1.3;;
73315;SDS011;61545;53.726;-0.444;2023-04-25T16:02:56;5.0;;;1.5;;
73315;SDS011;61545;53.726;-0.444;2023-04-25T16:08:00;5.0;;;1.5;;
73315;SDS011;61545;53.726;-0.444;2023-04-25T16:13:12;4.3;;;2.1;;
73315;SDS011;61545;53.726;-0.444;2023-04-25T16:17:57;5.2;;;1.5;;
73315;SDS011;61545;53.726;-0.444;2023-04-25T16:23:08;5.1;;;1.5;;
73315;SDS011;61545;53.726;-0.444;2023-04-25T16:28:05;7.3;;;1.6;;
73315;SDS011;61545;53.726;-0.444;2023-04-25T16:32:54;5.4;;;1.8;;
73315;SDS011;61545;53.726;-0.444;2023-04-25T16:37:54;5.4;;;1.8;;
73315;SDS011;61545;53.726;-0.444;2023-04-25T16:43:13;5.1;;;1.6;;
73315;SDS011;61545;53.726;-0.444;2023-04-25T16:48:16;6.0;;;1.7;;
73315;SDS011;61545;53.726;-0.444;2023-04-25T16:53:08;3.6;;;1.5;;
73315;SDS011;61545;53.726;-0.444;2023-04-25T16:57:54;3.8;;;1.3;;
73315;SDS011;61545;53.726;-0.444;2023-04-25T17:02:54;6.8;;;1.8;;
73315;SDS011;61545;53.726;-0.444;2023-04-25T17:07:57;6.8;;;1.8;;
73315;SDS011;61545;53.726;-0.444;2023-04-25T17:13:06;3.5;;;1.3;;
73315;SDS011;61545;53.726;-0.444;2023-04-25T17:23:05;5.2;;;1.6;;
73315;SDS011;61545;53.726;-0.444;2023-04-25T17:27:57;5.5;;;1.5;;
73315;SDS011;61545;53.726;-0.444;2023-04-25T17:33:09;4.7;;;1.5;;
73315;SDS011;61545;53.726;-0.444;2023-04-25T17:38:15;4.7;;;1.5;;
73315;SDS011;61545;53.726;-0.444;2023-04-25T17:43:06;6.6;;;1.9;;
73315;SDS011;61545;53.726;-0.444;2023-04-25T17:48:06;5.4;;;1.5;;
73315;SDS011;61545;53.726;-0.444;2023-04-25T17:53:05;6.3;;;1.8;;
73315;SDS011;61545;53.726;-0.444;2023-04-25T17:58:08;7.8;;;1.5;;
73315;SDS011;61545;53.726;-0.444;2023-04-25T18:03:04;3.1;;;1.3;;
73315;SDS011;61545;53.726;-0.444;2023-04-25T18:08:19;3.1;;;1.3;;
73315;SDS011;61545;53.726;-0.444;2023-04-25T18:13:01;4.8;;;1.5;;
73315;SDS011;61545;53.726;-0.444;2023-04-25T18:17:57;7.3;;;2.3;;
73315;SDS011;61545;53.726;-0.444;2023-04-25T18:27:58;2.9;;;1.3;;
73315;SDS011;61545;53.726;-0.444;2023-04-25T18:32:58;3.0;;;1;;
73315;SDS011;61545;53.726;-0.444;2023-04-25T18:38:09;3.0;;;1;;
73315;SDS011;61545;53.726;-0.444;2023-04-25T18:42:57;3.7;;;1.2;;
73315;SDS011;61545;53.726;-0.444;2023-04-25T18:48:07;2.5;;;1.1;;
73315;SDS011;61545;53.726;-0.444;2023-04-25T18:52:59;4.7;;;1.3;;
73315;SDS011;61545;53.726;-0.444;2023-04-25T18:57:54;4.4;;;1.2;;
73315;SDS011;61545;53.726;-0.444;2023-04-25T19:02:54;2.4;;;1.1;;
73315;SDS011;61545;53.726;-0.444;2023-04-25T19:07:58;2.4;;;1.1;;
73315;SDS011;61545;53.726;-0.444;2023-04-25T19:12:56;3.7;;;1.2;;
73315;SDS011;61545;53.726;-0.444;2023-04-25T19:17:56;3.3;;;1.4;;
73315;SDS011;61545;53.726;-0.444;2023-04-25T19:22:54;6.7;;;1.4;;
73315;SDS011;61545;53.726;-0.444;2023-04-25T19:27:56;6.8;;;1.6;;
73315;SDS011;61545;53.726;-0.444;2023-04-25T19:32:56;2.3;;;1.2;;
73315;SDS011;61545;53.726;-0.444;2023-04-25T19:42:54;3.4;;;1.5;;
73315;SDS011;61545;53.726;-0.444;2023-04-25T19:47:59;4.2;;;1;;
73315;SDS011;61545;53.726;-0.444;2023-04-25T19:52:57;3.5;;;1.2;;
73315;SDS011;61545;53.726;-0.444;2023-04-25T19:57:54;5.3;;;1.6;;
73315;SDS011;61545;53.726;-0.444;2023-04-25T20:08:06;5.0;;;1.7;;
73315;SDS011;61545;53.726;-0.444;2023-04-25T20:12:57;4.4;;;1.2;;
73315;SDS011;61545;53.726;-0.444;2023-04-25T20:18:07;4.7;;;1;;
73315;SDS011;61545;53.726;-0.444;2023-04-25T20:22:57;4.7;;;1.2;;
73315;SDS011;61545;53.726;-0.444;2023-04-25T20:27:57;3.9;;;1.6;;
73315;SDS011;61545;53.726;-0.444;2023-04-25T20:32:56;5.9;;;1.4;;
73315;SDS011;61545;53.726;-0.444;2023-04-25T20:47:57;5.0;;;1.4;;
73315;SDS011;61545;53.726;-0.444;2023-04-25T20:52:56;7.7;;;1.6;;
73315;SDS011;61545;53.726;-0.444;2023-04-25T20:57:59;5.6;;;1.1;;
73315;SDS011;61545;53.726;-0.444;2023-04-25T21:02:57;7.3;;;1.4;;
73315;SDS011;61545;53.726;-0.444;2023-04-25T21:07:56;7.3;;;1.4;;
73315;SDS011;61545;53.726;-0.444;2023-04-25T21:12:54;3.5;;;1.2;;
73315;SDS011;61545;53.726;-0.444;2023-04-25T21:17:54;7.1;;;1.6;;
73315;SDS011;61545;53.726;-0.444;2023-04-25T21:22:54;5.7;;;1.8;;
73315;SDS011;61545;53.726;-0.444;2023-04-25T21:27:54;5.7;;;2.1;;
73315;SDS011;61545;53.726;-0.444;2023-04-25T21:32:54;6.2;;;2.1;;
73315;SDS011;61545;53.726;-0.444;2023-04-25T21:47:57;13.4;;;3.3;;
73315;SDS011;61545;53.726;-0.444;2023-04-25T21:52:57;12.0;;;3.4;;
73315;SDS011;61545;53.726;-0.444;2023-04-25T21:57:57;11.1;;;3.5;;
73315;SDS011;61545;53.726;-0.444;2023-04-25T22:02:57;9.0;;;4;;
73315;SDS011;61545;53.726;-0.444;2023-04-25T22:12:57;10.0;;;3.8;;
73315;SDS011;61545;53.726;-0.444;2023-04-25T22:17:57;8.5;;;3.1;;
73315;SDS011;61545;53.726;-0.444;2023-04-25T22:27:57;7.8;;;2.7;;
73315;SDS011;61545;53.726;-0.444;2023-04-25T22:32:57;7.4;;;2.4;;
73315;SDS011;61545;53.726;-0.444;2023-04-25T22:42:54;10.0;;;2.5;;
73315;SDS011;61545;53.726;-0.444;2023-04-25T22:47:54;6.1;;;2.4;;
73315;SDS011;61545;53.726;-0.444;2023-04-25T22:57:57;11.5;;;2.9;;
73315;SDS011;61545;53.726;-0.444;2023-04-25T23:02:56;7.4;;;2.4;;
73315;SDS011;61545;53.726;-0.444;2023-04-25T23:07:54;7.4;;;2.4;;
73315;SDS011;61545;53.726;-0.444;2023-04-25T23:12:54;8.6;;;2.7;;
73315;SDS011;61545;53.726;-0.444;2023-04-25T23:17:55;6.8;;;2.7;;
73315;SDS011;61545;53.726;-0.444;2023-04-25T23:22:57;5.8;;;2.3;;
73315;SDS011;61545;53.726;-0.444;2023-04-25T23:27:55;7.0;;;2.2;;
73315;SDS011;61545;53.726;-0.444;2023-04-25T23:37:55;5.7;;;1.9;;
73315;SDS011;61545;53.726;-0.444;2023-04-25T23:42:57;6.0;;;2.3;;
73315;SDS011;61545;53.726;-0.444;2023-04-25T23:47:57;7.3;;;2.7;;
73315;SDS011;61545;53.726;-0.444;2023-04-25T23:52:57;6.0;;;2.6;;
73315;SDS011;61545;53.726;-0.444;2023-04-25T23:57:57;8.3;;;2.4;;
